sensor_id;sensor_type;location;lat;lon;timestamp;pressure;altitude;pressure_sealevel;temperature;humidity
16030;BME280;34770;49.272;11.070;2023-03-03T00:01:22;97863.38;;;-0.52;100.00
16030;BME280;34770;49.272;11.070;2023-03-03T00:03:52;97876.84;;;-0.71;100.00
16030;BME280;34770;49.272;11.070;2023-03-03T00:06:19;97870.84;;;-0.68;100.00
16030;BME280;34770;49.272;11.070;2023-03-03T00:08:45;97876.03;;;-0.76;100.00
16030;BME280;34770;49.272;11.070;2023-03-03T00:11:10;97872.47;;;-0.67;100.00
16030;BME280;34770;49.272;11.070;2023-03-03T00:13:52;97871.09;;;-0.64;100.00
16030;BME280;34770;49.272;11.070;2023-03-03T00:16:28;97855.56;;;-0.74;100.00
16030;BME280;34770;49.272;11.070;2023-03-03T00:18:54;97869.72;;;-0.61;100.00
16030;BME280;34770;49.272;11.070;2023-03-03T00:21:23;97872.66;;;-0.53;100.00
16030;BME280;34770;49.272;11.070;2023-03-03T00:26:39;97855.28;;;-0.77;100.00
16030;BME280;34770;49.272;11.070;2023-03-03T00:29:29;97864.53;;;-0.68;100.00
16030;BME280;34770;49.272;11.070;2023-03-03T00:32:25;97867.53;;;-0.59;100.00
16030;BME280;34770;49.272;11.070;2023-03-03T00:34:53;97869.47;;;-0.75;100.00
16030;BME280;34770;49.272;11.070;2023-03-03T00:37:45;97871.38;;;-0.71;100.00
16030;BME280;34770;49.272;11.070;2023-03-03T00:42:40;97864.00;;;-0.75;100.00
16030;BME280;34770;49.272;11.070;2023-03-03T00:45:37;97880.16;;;-0.79;100.00
16030;BME280;34770;49.272;11.070;2023-03-03T00:50:45;97878.84;;;-1.02;100.00
16030;BME280;34770;49.272;11.070;2023-03-03T00:53:13;97859.75;;;-1.07;100.00
16030;BME280;34770;49.272;11.070;2023-03-03T00:55:41;97871.75;;;-0.98;100.00
16030;BME280;34770;49.272;11.070;2023-03-03T00:58:07;97869.84;;;-1.03;100.00
16030;BME280;34770;49.272;11.070;2023-03-03T01:00:33;97887.31;;;-0.88;100.00
16030;BME280;34770;49.272;11.070;2023-03-03T01:03:02;97873.69;;;-1.09;100.00
16030;BME280;34770;49.272;11.070;2023-03-03T01:05:28;97873.94;;;-1.00;100.00
16030;BME280;34770;49.272;11.070;2023-03-03T01:07:53;97869.56;;;-1.01;100.00
16030;BME280;34770;49.272;11.070;2023-03-03T01:10:19;97880.50;;;-1.01;100.00
16030;BME280;34770;49.272;11.070;2023-03-03T01:12:44;97866.88;;;-1.11;100.00
16030;BME280;34770;49.272;11.070;2023-03-03T01:15:12;97868.50;;;-1.05;100.00
16030;BME280;34770;49.272;11.070;2023-03-03T01:17:38;97864.19;;;-1.32;100.00
16030;BME280;34770;49.272;11.070;2023-03-03T01:20:11;97872.63;;;-1.23;100.00
16030;BME280;34770;49.272;11.070;2023-03-03T01:22:37;97853.78;;;-1.30;100.00
16030;BME280;34770;49.272;11.070;2023-03-03T01:25:02;97870.41;;;-1.11;100.00
16030;BME280;34770;49.272;11.070;2023-03-03T01:27:29;97872.88;;;-1.15;100.00
16030;BME280;34770;49.272;11.070;2023-03-03T01:29:55;97849.97;;;-1.19;100.00
16030;BME280;34770;49.272;11.070;2023-03-03T01:32:22;97867.94;;;-1.02;100.00
16030;BME280;34770;49.272;11.070;2023-03-03T01:34:47;97877.47;;;-1.00;100.00
16030;BME280;34770;49.272;11.070;2023-03-03T01:37:13;97864.13;;;-1.17;100.00
16030;BME280;34770;49.272;11.070;2023-03-03T01:39:39;97875.06;;;-1.06;100.00
16030;BME280;34770;49.272;11.070;2023-03-03T01:42:04;97873.13;;;-1.06;100.00
16030;BME280;34770;49.272;11.070;2023-03-03T01:44:30;97855.44;;;-1.29;100.00
16030;BME280;34770;49.272;11.070;2023-03-03T01:47:31;97870.44;;;-1.16;100.00
16030;BME280;34770;49.272;11.070;2023-03-03T01:50:05;97856.78;;;-1.16;100.00
16030;BME280;34770;49.272;11.070;2023-03-03T01:52:41;97848.31;;;-1.30;100.00
16030;BME280;34770;49.272;11.070;2023-03-03T01:55:14;97847.53;;;-1.46;100.00
16030;BME280;34770;49.272;11.070;2023-03-03T01:57:51;97844.53;;;-1.50;100.00
16030;BME280;34770;49.272;11.070;2023-03-03T02:00:20;97871.03;;;-1.66;100.00
16030;BME280;34770;49.272;11.070;2023-03-03T02:02:46;97845.66;;;-1.66;100.00
16030;BME280;34770;49.272;11.070;2023-03-03T02:05:13;97860.66;;;-1.43;100.00
16030;BME280;34770;49.272;11.070;2023-03-03T02:07:40;97848.91;;;-1.43;100.00
16030;BME280;34770;49.272;11.070;2023-03-03T02:10:10;97861.97;;;-1.30;100.00
16030;BME280;34770;49.272;11.070;2023-03-03T02:12:42;97840.69;;;-1.38;100.00
16030;BME280;34770;49.272;11.070;2023-03-03T02:15:20;97853.00;;;-1.31;100.00
16030;BME280;34770;49.272;11.070;2023-03-03T02:17:48;97858.72;;;-1.32;100.00
16030;BME280;34770;49.272;11.070;2023-03-03T02:28:27;97865.59;;;-1.50;100.00
16030;BME280;34770;49.272;11.070;2023-03-03T02:30:54;97853.00;;;-1.56;100.00
16030;BME280;34770;49.272;11.070;2023-03-03T02:33:20;97866.38;;;-1.50;100.00
16030;BME280;34770;49.272;11.070;2023-03-03T02:35:46;97858.75;;;-1.58;100.00
16030;BME280;34770;49.272;11.070;2023-03-03T02:38:28;97870.78;;;-1.54;100.00
16030;BME280;34770;49.272;11.070;2023-03-03T02:43:42;97864.75;;;-1.71;100.00
16030;BME280;34770;49.272;11.070;2023-03-03T02:46:10;97859.84;;;-1.64;100.00
16030;BME280;34770;49.272;11.070;2023-03-03T02:48:35;97862.59;;;-1.54;100.00
16030;BME280;34770;49.272;11.070;2023-03-03T02:51:01;97870.22;;;-1.61;100.00
16030;BME280;34770;49.272;11.070;2023-03-03T02:53:26;97875.16;;;-1.68;100.00
16030;BME280;34770;49.272;11.070;2023-03-03T02:55:52;97877.31;;;-1.75;100.00
16030;BME280;34770;49.272;11.070;2023-03-03T02:58:17;97864.78;;;-1.82;100.00
16030;BME280;34770;49.272;11.070;2023-03-03T03:00:43;97880.59;;;-1.68;100.00
16030;BME280;34770;49.272;11.070;2023-03-03T03:03:12;97879.22;;;-1.66;100.00
16030;BME280;34770;49.272;11.070;2023-03-03T03:05:37;97874.84;;;-1.62;100.00
16030;BME280;34770;49.272;11.070;2023-03-03T03:08:03;97877.03;;;-1.74;100.00
16030;BME280;34770;49.272;11.070;2023-03-03T03:10:30;97862.56;;;-1.80;100.00
16030;BME280;34770;49.272;11.070;2023-03-03T03:12:55;97866.94;;;-1.79;100.00
16030;BME280;34770;49.272;11.070;2023-03-03T03:15:21;97860.41;;;-1.83;100.00
16030;BME280;34770;49.272;11.070;2023-03-03T03:17:46;97867.50;;;-1.77;100.00
16030;BME280;34770;49.272;11.070;2023-03-03T03:22:38;97861.50;;;-1.89;100.00
16030;BME280;34770;49.272;11.070;2023-03-03T03:25:04;97873.47;;;-2.00;100.00
16030;BME280;34770;49.272;11.070;2023-03-03T03:27:29;97877.56;;;-1.98;100.00
16030;BME280;34770;49.272;11.070;2023-03-03T03:29:55;97864.22;;;-1.89;100.00
16030;BME280;34770;49.272;11.070;2023-03-03T03:32:20;97868.59;;;-1.83;100.00
16030;BME280;34770;49.272;11.070;2023-03-03T03:34:46;97865.84;;;-1.83;100.00
16030;BME280;34770;49.272;11.070;2023-03-03T03:37:11;97863.94;;;-1.82;100.00
16030;BME280;34770;49.272;11.070;2023-03-03T03:39:37;97863.38;;;-1.89;100.00
16030;BME280;34770;49.272;11.070;2023-03-03T03:42:03;97868.84;;;-1.89;100.00
16030;BME280;34770;49.272;11.070;2023-03-03T03:44:28;97873.78;;;-1.86;100.00
16030;BME280;34770;49.272;11.070;2023-03-03T03:46:54;97878.41;;;-1.82;100.00
16030;BME280;34770;49.272;11.070;2023-03-03T03:49:19;97878.16;;;-1.85;100.00
16030;BME280;34770;49.272;11.070;2023-03-03T03:51:45;97878.66;;;-1.88;100.00
16030;BME280;34770;49.272;11.070;2023-03-03T03:54:11;97859.56;;;-2.09;100.00
16030;BME280;34770;49.272;11.070;2023-03-03T03:56:37;97873.44;;;-2.21;100.00
16030;BME280;34770;49.272;11.070;2023-03-03T03:59:05;97865.25;;;-2.31;100.00
16030;BME280;34770;49.272;11.070;2023-03-03T04:01:30;97890.91;;;-2.12;100.00
16030;BME280;34770;49.272;11.070;2023-03-03T04:03:56;97891.44;;;-2.15;100.00
16030;BME280;34770;49.272;11.070;2023-03-03T04:06:21;97897.72;;;-2.19;100.00
16030;BME280;34770;49.272;11.070;2023-03-03T04:08:47;97885.63;;;-2.54;100.00
16030;BME280;34770;49.272;11.070;2023-03-03T04:11:12;97887.59;;;-2.34;100.00
16030;BME280;34770;49.272;11.070;2023-03-03T04:13:38;97891.72;;;-2.27;100.00
16030;BME280;34770;49.272;11.070;2023-03-03T04:16:04;97885.94;;;-2.51;100.00
16030;BME280;34770;49.272;11.070;2023-03-03T04:18:29;97899.56;;;-2.35;100.00
16030;BME280;34770;49.272;11.070;2023-03-03T04:20:54;97896.34;;;-2.27;100.00
16030;BME280;34770;49.272;11.070;2023-03-03T04:23:20;97889.25;;;-2.28;100.00
16030;BME280;34770;49.272;11.070;2023-03-03T04:25:46;97880.78;;;-2.37;100.00
16030;BME280;34770;49.272;11.070;2023-03-03T04:28:13;97875.31;;;-2.47;100.00
16030;BME280;34770;49.272;11.070;2023-03-03T04:30:39;97883.50;;;-2.32;100.00
16030;BME280;34770;49.272;11.070;2023-03-03T04:33:05;97885.13;;;-2.41;100.00
16030;BME280;34770;49.272;11.070;2023-03-03T04:35:30;97891.97;;;-2.28;100.00
16030;BME280;34770;49.272;11.070;2023-03-03T04:37:56;97876.97;;;-2.36;100.00
16030;BME280;34770;49.272;11.070;2023-03-03T04:40:21;97877.25;;;-2.37;100.00
16030;BME280;34770;49.272;11.070;2023-03-03T04:42:47;97893.06;;;-2.29;100.00
16030;BME280;34770;49.272;11.070;2023-03-03T04:45:12;97867.94;;;-2.47;100.00
16030;BME280;34770;49.272;11.070;2023-03-03T04:47:38;97883.50;;;-2.42;100.00
16030;BME280;34770;49.272;11.070;2023-03-03T04:50:04;97890.84;;;-2.43;100.00
16030;BME280;34770;49.272;11.070;2023-03-03T04:52:29;97900.13;;;-2.33;100.00
16030;BME280;34770;49.272;11.070;2023-03-03T04:54:55;97894.63;;;-2.54;100.00
16030;BME280;34770;49.272;11.070;2023-03-03T04:57:20;97908.53;;;-2.45;100.00
16030;BME280;34770;49.272;11.070;2023-03-03T04:59:46;97901.75;;;-2.43;100.00
16030;BME280;34770;49.272;11.070;2023-03-03T05:02:11;97905.53;;;-2.49;100.00
16030;BME280;34770;49.272;11.070;2023-03-03T05:04:37;97892.47;;;-2.52;100.00
16030;BME280;34770;49.272;11.070;2023-03-03T05:07:03;97908.16;;;-2.75;100.00
16030;BME280;34770;49.272;11.070;2023-03-03T05:09:29;97906.81;;;-2.72;100.00
16030;BME280;34770;49.272;11.070;2023-03-03T05:11:54;97909.03;;;-2.64;100.00
16030;BME280;34770;49.272;11.070;2023-03-03T05:14:20;97899.50;;;-2.61;100.00
16030;BME280;34770;49.272;11.070;2023-03-03T05:16:46;97906.03;;;-2.62;100.00
16030;BME280;34770;49.272;11.070;2023-03-03T05:19:11;97900.88;;;-2.53;100.00
16030;BME280;34770;49.272;11.070;2023-03-03T05:21:37;97902.28;;;-2.51;100.00
16030;BME280;34770;49.272;11.070;2023-03-03T05:24:07;97900.88;;;-2.59;100.00
16030;BME280;34770;49.272;11.070;2023-03-03T05:26:33;97914.19;;;-2.67;100.00
16030;BME280;34770;49.272;11.070;2023-03-03T05:28:59;97904.25;;;-2.99;100.00
16030;BME280;34770;49.272;11.070;2023-03-03T05:31:24;97915.63;;;-3.08;100.00
16030;BME280;34770;49.272;11.070;2023-03-03T05:33:51;97920.03;;;-2.96;100.00
16030;BME280;34770;49.272;11.070;2023-03-03T05:36:17;97911.84;;;-3.07;100.00
16030;BME280;34770;49.272;11.070;2023-03-03T05:38:43;97930.66;;;-2.95;100.00
16030;BME280;34770;49.272;11.070;2023-03-03T05:41:09;97928.47;;;-3.03;100.00
16030;BME280;34770;49.272;11.070;2023-03-03T05:43:34;97915.94;;;-3.04;100.00
16030;BME280;34770;49.272;11.070;2023-03-03T05:46:00;97927.75;;;-2.83;100.00
16030;BME280;34770;49.272;11.070;2023-03-03T05:48:26;97908.66;;;-2.83;100.00
16030;BME280;34770;49.272;11.070;2023-03-03T05:50:51;97912.81;;;-2.75;100.00
16030;BME280;34770;49.272;11.070;2023-03-03T05:53:17;97912.56;;;-2.68;100.00
16030;BME280;34770;49.272;11.070;2023-03-03T05:55:42;97915.34;;;-2.58;100.00
16030;BME280;34770;49.272;11.070;2023-03-03T05:58:08;97914.19;;;-2.67;100.00
16030;BME280;34770;49.272;11.070;2023-03-03T06:00:33;97923.50;;;-2.58;100.00
16030;BME280;34770;49.272;11.070;2023-03-03T06:02:59;97933.91;;;-2.45;100.00
16030;BME280;34770;49.272;11.070;2023-03-03T06:05:24;97936.66;;;-2.39;100.00
16030;BME280;34770;49.272;11.070;2023-03-03T06:07:50;97950.84;;;-2.37;100.00
16030;BME280;34770;49.272;11.070;2023-03-03T06:10:16;97935.78;;;-2.55;100.00
16030;BME280;34770;49.272;11.070;2023-03-03T06:12:41;97945.84;;;-2.61;100.00
16030;BME280;34770;49.272;11.070;2023-03-03T06:15:08;97958.16;;;-2.48;100.00
16030;BME280;34770;49.272;11.070;2023-03-03T06:17:34;97957.03;;;-2.52;100.00
16030;BME280;34770;49.272;11.070;2023-03-03T06:20:00;97964.44;;;-2.43;100.00
16030;BME280;34770;49.272;11.070;2023-03-03T06:22:25;97962.28;;;-2.41;100.00
16030;BME280;34770;49.272;11.070;2023-03-03T06:24:51;97950.84;;;-2.37;100.00
16030;BME280;34770;49.272;11.070;2023-03-03T06:27:17;97961.19;;;-2.39;100.00
16030;BME280;34770;49.272;11.070;2023-03-03T06:29:43;97972.41;;;-2.31;100.00
16030;BME280;34770;49.272;11.070;2023-03-03T06:32:09;97943.75;;;-2.38;100.00
16030;BME280;34770;49.272;11.070;2023-03-03T06:34:35;97977.88;;;-2.26;100.00
16030;BME280;34770;49.272;11.070;2023-03-03T06:37:00;97976.53;;;-2.18;100.00
16030;BME280;34770;49.272;11.070;2023-03-03T06:39:26;97985.25;;;-2.21;100.00
16030;BME280;34770;49.272;11.070;2023-03-03T06:41:52;97963.38;;;-2.36;100.00
16030;BME280;34770;49.272;11.070;2023-03-03T06:44:17;97983.09;;;-2.14;100.00
16030;BME280;34770;49.272;11.070;2023-03-03T06:46:43;97981.44;;;-2.20;100.00
16030;BME280;34770;49.272;11.070;2023-03-03T06:49:08;97987.19;;;-2.11;100.00
16030;BME280;34770;49.272;11.070;2023-03-03T06:51:36;98004.13;;;-2.09;100.00
16030;BME280;34770;49.272;11.070;2023-03-03T06:54:19;97997.88;;;-2.04;100.00
16030;BME280;34770;49.272;11.070;2023-03-03T06:56:45;98010.38;;;-2.09;100.00
16030;BME280;34770;49.272;11.070;2023-03-03T06:59:14;98008.22;;;-2.01;100.00
16030;BME280;34770;49.272;11.070;2023-03-03T07:01:41;98011.22;;;-2.03;100.00
16030;BME280;34770;49.272;11.070;2023-03-03T07:04:30;97995.69;;;-2.02;100.00
16030;BME280;34770;49.272;11.070;2023-03-03T07:06:59;98009.06;;;-1.90;100.00
16030;BME280;34770;49.272;11.070;2023-03-03T07:09:30;98014.28;;;-1.84;100.00
16030;BME280;34770;49.272;11.070;2023-03-03T07:12:00;98011.34;;;-1.62;100.00
16030;BME280;34770;49.272;11.070;2023-03-03T07:14:28;98020.38;;;-1.51;100.00
16030;BME280;34770;49.272;11.070;2023-03-03T07:16:58;98019.31;;;-1.29;100.00
16030;BME280;34770;49.272;11.070;2023-03-03T07:19:33;98010.56;;;-1.16;100.00
16030;BME280;34770;49.272;11.070;2023-03-03T07:22:24;97990.63;;;-1.11;100.00
16030;BME280;34770;49.272;11.070;2023-03-03T07:24:53;98007.28;;;-0.92;100.00
16030;BME280;34770;49.272;11.070;2023-03-03T07:27:30;98009.47;;;-0.84;100.00
16030;BME280;34770;49.272;11.070;2023-03-03T07:32:43;98021.88;;;-0.21;100.00
16030;BME280;34770;49.272;11.070;2023-03-03T07:35:37;98014.13;;;0.02;100.00
16030;BME280;34770;49.272;11.070;2023-03-03T07:38:30;98025.47;;;0.30;100.00
16030;BME280;34770;49.272;11.070;2023-03-03T07:41:00;98018.63;;;0.32;100.00
16030;BME280;34770;49.272;11.070;2023-03-03T07:43:39;98020.56;;;0.32;100.00
16030;BME280;34770;49.272;11.070;2023-03-03T07:46:22;98033.38;;;0.42;100.00
16030;BME280;34770;49.272;11.070;2023-03-03T07:48:49;98041.13;;;0.24;100.00
16030;BME280;34770;49.272;11.070;2023-03-03T07:51:37;98022.56;;;0.61;100.00
16030;BME280;34770;49.272;11.070;2023-03-03T07:57:40;98023.63;;;1.34;100.00
16030;BME280;34770;49.272;11.070;2023-03-03T08:04:47;98022.16;;;1.71;93.06
16030;BME280;34770;49.272;11.070;2023-03-03T08:07:18;98028.31;;;2.06;92.02
16030;BME280;34770;49.272;11.070;2023-03-03T08:09:59;98035.56;;;2.41;89.09
16030;BME280;34770;49.272;11.070;2023-03-03T08:14:54;98035.44;;;3.22;87.62
16030;BME280;34770;49.272;11.070;2023-03-03T08:17:29;98040.63;;;3.24;85.46
16030;BME280;34770;49.272;11.070;2023-03-03T08:19:58;98024.63;;;3.12;82.75
16030;BME280;34770;49.272;11.070;2023-03-03T08:22:32;98025.53;;;3.07;83.58
16030;BME280;34770;49.272;11.070;2023-03-03T08:25:02;98040.69;;;3.05;84.15
16030;BME280;34770;49.272;11.070;2023-03-03T08:27:28;98033.09;;;3.15;82.72
16030;BME280;34770;49.272;11.070;2023-03-03T08:29:54;98044.59;;;3.50;82.37
16030;BME280;34770;49.272;11.070;2023-03-03T08:32:19;98047.81;;;3.99;81.90
16030;BME280;34770;49.272;11.070;2023-03-03T08:34:45;98044.44;;;3.89;79.03
16030;BME280;34770;49.272;11.070;2023-03-03T08:37:10;98057.00;;;3.81;77.67
16030;BME280;34770;49.272;11.070;2023-03-03T08:39:36;98024.47;;;3.97;78.06
16030;BME280;34770;49.272;11.070;2023-03-03T08:42:01;98044.88;;;4.10;76.06
16030;BME280;34770;49.272;11.070;2023-03-03T08:44:27;98022.84;;;4.10;73.86
16030;BME280;34770;49.272;11.070;2023-03-03T08:46:52;98036.50;;;3.87;71.60
16030;BME280;34770;49.272;11.070;2023-03-03T08:49:18;98047.66;;;2.97;74.00
16030;BME280;34770;49.272;11.070;2023-03-03T08:51:44;98065.16;;;3.39;74.83
16030;BME280;34770;49.272;11.070;2023-03-03T08:54:09;98055.19;;;3.57;72.41
16030;BME280;34770;49.272;11.070;2023-03-03T08:56:35;98061.75;;;3.61;74.27
16030;BME280;34770;49.272;11.070;2023-03-03T08:59:00;98057.06;;;3.76;74.36
16030;BME280;34770;49.272;11.070;2023-03-03T09:01:26;98052.38;;;4.18;72.44
16030;BME280;34770;49.272;11.070;2023-03-03T09:03:51;98030.94;;;4.29;68.96
16030;BME280;34770;49.272;11.070;2023-03-03T09:06:17;98071.19;;;4.16;70.48
16030;BME280;34770;49.272;11.070;2023-03-03T09:08:42;98062.28;;;4.47;69.02
16030;BME280;34770;49.272;11.070;2023-03-03T09:11:11;98071.44;;;5.30;64.91
16030;BME280;34770;49.272;11.070;2023-03-03T09:13:36;98063.81;;;5.81;64.40
16030;BME280;34770;49.272;11.070;2023-03-03T09:16:10;98070.03;;;6.27;63.04
16030;BME280;34770;49.272;11.070;2023-03-03T09:18:38;98062.34;;;7.34;59.69
16030;BME280;34770;49.272;11.070;2023-03-03T09:21:23;98051.34;;;8.20;56.21
16030;BME280;34770;49.272;11.070;2023-03-03T09:23:59;98060.63;;;8.63;54.11
16030;BME280;34770;49.272;11.070;2023-03-03T09:26:50;98061.13;;;9.07;52.70
16030;BME280;34770;49.272;11.070;2023-03-03T09:29:27;98033.41;;;8.77;52.32
16030;BME280;34770;49.272;11.070;2023-03-03T09:31:55;98053.69;;;8.99;50.26
16030;BME280;34770;49.272;11.070;2023-03-03T09:34:41;98055.47;;;9.71;50.71
16030;BME280;34770;49.272;11.070;2023-03-03T09:37:19;98051.88;;;9.58;48.63
16030;BME280;34770;49.272;11.070;2023-03-03T09:39:49;98020.78;;;10.02;47.28
16030;BME280;34770;49.272;11.070;2023-03-03T09:48:18;98040.34;;;10.92;45.84
16030;BME280;34770;49.272;11.070;2023-03-03T09:50:56;98028.72;;;12.04;43.00
16030;BME280;34770;49.272;11.070;2023-03-03T09:54:03;98052.38;;;11.49;43.43
16030;BME280;34770;49.272;11.070;2023-03-03T09:56:40;98048.72;;;12.22;42.42
16030;BME280;34770;49.272;11.070;2023-03-03T09:59:29;98051.59;;;12.25;43.17
16030;BME280;34770;49.272;11.070;2023-03-03T10:02:22;98051.53;;;13.09;41.62
16030;BME280;34770;49.272;11.070;2023-03-03T10:05:18;98009.03;;;10.95;44.06
16030;BME280;34770;49.272;11.070;2023-03-03T10:08:05;98030.84;;;9.15;48.18
16030;BME280;34770;49.272;11.070;2023-03-03T10:16:12;98004.66;;;9.83;47.87
16030;BME280;34770;49.272;11.070;2023-03-03T10:21:28;98028.41;;;8.41;49.19
16030;BME280;34770;49.272;11.070;2023-03-03T10:24:05;98013.63;;;8.28;51.58
16030;BME280;34770;49.272;11.070;2023-03-03T10:31:54;98074.31;;;8.29;51.94
16030;BME280;34770;49.272;11.070;2023-03-03T10:35:05;98077.94;;;9.11;50.83
16030;BME280;34770;49.272;11.070;2023-03-03T10:42:42;98071.25;;;7.66;53.57
16030;BME280;34770;49.272;11.070;2023-03-03T10:45:46;98063.13;;;8.08;52.27
16030;BME280;34770;49.272;11.070;2023-03-03T10:48:36;98013.06;;;8.13;51.59
16030;BME280;34770;49.272;11.070;2023-03-03T10:51:14;98060.00;;;8.19;52.34
16030;BME280;34770;49.272;11.070;2023-03-03T10:58:57;98064.13;;;9.57;48.83
16030;BME280;34770;49.272;11.070;2023-03-03T11:01:45;98058.69;;;9.61;48.96
16030;BME280;34770;49.272;11.070;2023-03-03T11:04:19;98055.28;;;9.42;51.14
16030;BME280;34770;49.272;11.070;2023-03-03T11:20:38;98012.34;;;10.23;47.08
16030;BME280;34770;49.272;11.070;2023-03-03T11:28:35;98047.56;;;11.34;45.93
16030;BME280;34770;49.272;11.070;2023-03-03T11:33:46;98053.25;;;10.22;45.11
16030;BME280;34770;49.272;11.070;2023-03-03T11:36:27;98046.44;;;10.32;46.86
16030;BME280;34770;49.272;11.070;2023-03-03T11:39:07;98044.97;;;10.60;45.59
16030;BME280;34770;49.272;11.070;2023-03-03T11:41:39;98044.03;;;10.43;45.47
16030;BME280;34770;49.272;11.070;2023-03-03T11:44:28;98029.34;;;10.83;45.96
16030;BME280;34770;49.272;11.070;2023-03-03T11:47:10;98018.56;;;11.51;44.57
16030;BME280;34770;49.272;11.070;2023-03-03T11:58:18;98032.53;;;10.45;45.08
16030;BME280;34770;49.272;11.070;2023-03-03T12:00:55;98018.91;;;10.93;45.34
16030;BME280;34770;49.272;11.070;2023-03-03T12:03:33;98023.47;;;11.42;44.88
16030;BME280;34770;49.272;11.070;2023-03-03T12:12:05;98018.88;;;11.78;43.00
16030;BME280;34770;49.272;11.070;2023-03-03T12:14:48;98011.88;;;11.84;43.82
16030;BME280;34770;49.272;11.070;2023-03-03T12:20:09;98009.78;;;10.05;46.27
16030;BME280;34770;49.272;11.070;2023-03-03T12:22:58;98010.09;;;10.91;46.35
16030;BME280;34770;49.272;11.070;2023-03-03T12:25:38;98007.75;;;10.40;46.28
16030;BME280;34770;49.272;11.070;2023-03-03T12:33:57;97999.38;;;10.27;47.55
16030;BME280;34770;49.272;11.070;2023-03-03T12:36:57;97989.41;;;10.26;46.68
16030;BME280;34770;49.272;11.070;2023-03-03T12:45:31;97981.16;;;10.30;46.91
16030;BME280;34770;49.272;11.070;2023-03-03T12:48:00;97973.31;;;10.85;45.86
16030;BME280;34770;49.272;11.070;2023-03-03T12:55:57;97974.94;;;12.03;44.98
16030;BME280;34770;49.272;11.070;2023-03-03T13:06:29;97964.63;;;11.15;44.28
16030;BME280;34770;49.272;11.070;2023-03-03T13:08:59;97969.25;;;10.95;44.87
16030;BME280;34770;49.272;11.070;2023-03-03T13:12:06;97964.38;;;11.64;44.30
16030;BME280;34770;49.272;11.070;2023-03-03T13:17:33;97965.16;;;11.49;44.34
16030;BME280;34770;49.272;11.070;2023-03-03T13:20:19;97964.28;;;12.25;44.37
16030;BME280;34770;49.272;11.070;2023-03-03T13:23:03;97969.78;;;12.21;43.21
16030;BME280;34770;49.272;11.070;2023-03-03T13:25:53;97962.66;;;11.60;43.75
16030;BME280;34770;49.272;11.070;2023-03-03T13:28:43;97948.59;;;12.72;43.05
16030;BME280;34770;49.272;11.070;2023-03-03T13:31:14;97951.25;;;12.13;42.72
16030;BME280;34770;49.272;11.070;2023-03-03T13:33:50;97947.97;;;12.43;43.67
16030;BME280;34770;49.272;11.070;2023-03-03T13:36:18;97959.38;;;12.02;42.98
16030;BME280;34770;49.272;11.070;2023-03-03T13:38:51;97946.75;;;12.60;43.20
16030;BME280;34770;49.272;11.070;2023-03-03T13:41:22;97951.72;;;12.86;42.31
16030;BME280;34770;49.272;11.070;2023-03-03T13:43:56;97947.13;;;12.07;42.47
16030;BME280;34770;49.272;11.070;2023-03-03T13:50:03;97942.72;;;13.16;41.28
16030;BME280;34770;49.272;11.070;2023-03-03T13:52:43;97947.06;;;13.76;40.36
16030;BME280;34770;49.272;11.070;2023-03-03T13:55:20;97936.03;;;14.10;39.39
16030;BME280;34770;49.272;11.070;2023-03-03T13:57:55;97937.97;;;12.42;42.20
16030;BME280;34770;49.272;11.070;2023-03-03T14:03:23;97939.56;;;12.23;43.03
16030;BME280;34770;49.272;11.070;2023-03-03T14:05:56;97920.31;;;12.02;43.22
16030;BME280;34770;49.272;11.070;2023-03-03T14:13:59;97918.19;;;13.06;41.12
16030;BME280;34770;49.272;11.070;2023-03-03T14:16:57;97922.22;;;12.34;41.91
16030;BME280;34770;49.272;11.070;2023-03-03T14:19:36;97911.25;;;12.80;42.60
16030;BME280;34770;49.272;11.070;2023-03-03T14:22:53;97919.56;;;13.59;39.85
16030;BME280;34770;49.272;11.070;2023-03-03T14:25:19;97920.81;;;13.61;40.94
16030;BME280;34770;49.272;11.070;2023-03-03T14:30:27;97919.06;;;14.53;37.52
16030;BME280;34770;49.272;11.070;2023-03-03T14:36:23;97925.72;;;14.72;37.65
16030;BME280;34770;49.272;11.070;2023-03-03T14:41:11;97911.56;;;14.88;39.06
16030;BME280;34770;49.272;11.070;2023-03-03T14:43:41;97917.50;;;15.95;37.10
16030;BME280;34770;49.272;11.070;2023-03-03T14:49:03;97902.31;;;16.70;35.98
16030;BME280;34770;49.272;11.070;2023-03-03T14:53:58;97910.56;;;17.19;33.61
16030;BME280;34770;49.272;11.070;2023-03-03T14:56:28;97917.75;;;14.74;35.82
16030;BME280;34770;49.272;11.070;2023-03-03T14:59:19;97913.56;;;15.25;36.52
16030;BME280;34770;49.272;11.070;2023-03-03T15:01:56;97911.16;;;16.06;35.15
16030;BME280;34770;49.272;11.070;2023-03-03T15:04:25;97905.06;;;15.55;34.50
16030;BME280;34770;49.272;11.070;2023-03-03T15:06:53;97898.44;;;16.23;34.23
16030;BME280;34770;49.272;11.070;2023-03-03T15:15:01;97908.56;;;15.83;34.25
16030;BME280;34770;49.272;11.070;2023-03-03T15:17:57;97905.06;;;15.55;34.92
16030;BME280;34770;49.272;11.070;2023-03-03T15:34:20;97908.66;;;15.14;36.17
16030;BME280;34770;49.272;11.070;2023-03-03T15:36:59;97903.00;;;15.90;35.66
16030;BME280;34770;49.272;11.070;2023-03-03T15:39:47;97903.75;;;16.42;34.52
16030;BME280;34770;49.272;11.070;2023-03-03T15:42:19;97912.25;;;14.81;36.25
16030;BME280;34770;49.272;11.070;2023-03-03T15:45:02;97900.25;;;15.97;35.79
16030;BME280;34770;49.272;11.070;2023-03-03T15:56:45;97910.63;;;13.30;39.97
16030;BME280;34770;49.272;11.070;2023-03-03T16:02:27;97907.06;;;11.35;44.00
16030;BME280;34770;49.272;11.070;2023-03-03T16:08:12;97918.03;;;9.93;47.19
16030;BME280;34770;49.272;11.070;2023-03-03T16:10:54;97923.34;;;9.15;49.57
16030;BME280;34770;49.272;11.070;2023-03-03T16:16:34;97932.22;;;8.96;51.63
16030;BME280;34770;49.272;11.070;2023-03-03T16:21:47;97940.75;;;8.49;52.72
16030;BME280;34770;49.272;11.070;2023-03-03T16:35:47;97938.13;;;7.71;55.44
16030;BME280;34770;49.272;11.070;2023-03-03T16:38:36;97965.44;;;7.81;55.27